Winfield, Iowa
Current Conditions -  °F | °C
As of 1:15 PM on Friday 21 Nov 2014 (Local Time) from KMPZ Reporting Station
Clear Clear  
Wind Chill: -3°   Ceiling: Unl
Heat Index:   Visibility: 10mi
Dew Point: -10°   Wind: 13mph
Humidity: 44%   Direction: 150°SSE
Pressure: 30.28"   Gusts: NA
Location:  41.12°N, 91.44°W
Report Text: KMPZ 211915Z AUTO 15011KT 10SM CLR 02/M10 A3028 RMK AO2 T00151097
Loading
Personal Weather Stations






























Interactive Weather Map New forecast layout! Learn more

10-Day Weather Forecast

Advertisements
Track Severe Weather on mobile